createdAt,value
2017-08-08T00:01:50.419Z,20.01
2017-08-08T00:04:17.149Z,20.18
2017-08-08T00:06:43.531Z,20.17
2017-08-08T00:09:09.899Z,20.23
2017-08-08T00:11:36.300Z,20.10
2017-08-08T00:14:02.696Z,20.19
2017-08-08T00:16:29.064Z,20.29
2017-08-08T00:18:55.399Z,20.18
2017-08-08T00:21:22.025Z,19.77
2017-08-08T00:23:48.376Z,19.43
2017-08-08T00:26:14.731Z,19.49
2017-08-08T00:28:41.247Z,19.80
2017-08-08T00:31:07.729Z,20.07
2017-08-08T00:33:34.108Z,20.05
2017-08-08T00:36:00.486Z,20.06
2017-08-08T00:38:27.125Z,20.25
2017-08-08T00:40:53.488Z,20.13
2017-08-08T00:43:19.868Z,20.09
2017-08-08T00:45:46.212Z,19.92
2017-08-08T00:48:12.728Z,19.72
2017-08-08T00:50:39.092Z,19.77
2017-08-08T00:53:05.461Z,19.71
2017-08-08T00:55:31.833Z,19.55
2017-08-08T00:57:58.500Z,19.62
2017-08-08T01:00:24.858Z,19.56
2017-08-08T01:02:51.951Z,19.64
2017-08-08T01:05:18.354Z,19.46
2017-08-08T01:07:44.712Z,19.74
2017-08-08T01:10:11.620Z,19.97
2017-08-08T01:12:38.474Z,20.09
2017-08-08T01:15:06.252Z,19.97
2017-08-08T01:17:33.247Z,19.97
2017-08-08T01:20:00.117Z,19.92
2017-08-08T01:22:26.514Z,19.99
2017-08-08T01:24:52.977Z,19.95
2017-08-08T01:27:19.318Z,19.88
2017-08-08T01:29:45.697Z,19.64
2017-08-08T01:32:12.357Z,19.72
2017-08-08T01:34:38.749Z,19.79
2017-08-08T01:37:05.133Z,19.88
2017-08-08T01:39:31.514Z,19.86
2017-08-08T01:41:58.358Z,19.67
2017-08-08T01:44:25.299Z,19.58
2017-08-08T01:46:52.266Z,19.43
2017-08-08T01:49:19.172Z,19.43
2017-08-08T01:51:46.105Z,19.35
2017-08-08T01:54:13.132Z,19.23
2017-08-08T01:56:40.052Z,19.09
2017-08-08T01:59:06.979Z,18.95
2017-08-08T02:01:33.825Z,18.91
2017-08-08T02:04:00.243Z,18.77
2017-08-08T02:06:26.618Z,18.70
2017-08-08T02:08:54.429Z,18.73
2017-08-08T02:11:20.823Z,18.90
2017-08-08T02:13:47.241Z,19.00
2017-08-08T02:16:13.623Z,19.14
2017-08-08T02:18:40.136Z,19.29
2017-08-08T02:21:06.871Z,19.45
2017-08-08T02:23:33.324Z,19.45
2017-08-08T02:25:59.724Z,19.17
2017-08-08T02:28:26.121Z,18.66
2017-08-08T02:30:52.513Z,18.62
2017-08-08T02:33:18.901Z,18.85
2017-08-08T02:35:45.247Z,19.10
2017-08-08T02:38:11.757Z,19.23
2017-08-08T02:40:38.116Z,18.84
2017-08-08T02:43:04.492Z,18.59
2017-08-08T02:45:30.861Z,18.66
2017-08-08T02:47:57.229Z,18.41
2017-08-08T02:50:23.570Z,18.79
2017-08-08T02:52:49.957Z,19.10
2017-08-08T02:55:16.320Z,19.23
2017-08-08T02:57:42.662Z,19.30
2017-08-08T03:00:09.389Z,19.21
2017-08-08T03:02:35.749Z,19.21
2017-08-08T03:05:02.100Z,19.11
2017-08-08T03:07:28.445Z,18.83
2017-08-08T03:09:54.791Z,18.36
2017-08-08T03:12:21.123Z,18.08
2017-08-08T03:14:47.485Z,18.07
2017-08-08T03:17:13.868Z,18.24
2017-08-08T03:19:40.208Z,18.21
2017-08-08T03:22:06.556Z,18.42
2017-08-08T03:24:32.878Z,18.82
2017-08-08T03:26:59.235Z,18.97
2017-08-08T03:29:25.626Z,18.77
2017-08-08T03:31:51.996Z,18.88
2017-08-08T03:34:18.326Z,18.97
2017-08-08T03:36:44.714Z,18.93
2017-08-08T03:39:11.111Z,18.74
2017-08-08T03:41:37.464Z,18.24
2017-08-08T03:44:03.833Z,18.06
2017-08-08T03:46:31.450Z,18.13
2017-08-08T03:48:57.797Z,18.30
2017-08-08T03:51:24.153Z,18.64
2017-08-08T03:53:50.537Z,18.80
2017-08-08T03:56:16.891Z,18.60
2017-08-08T03:58:43.230Z,18.57
2017-08-08T04:01:09.591Z,18.77
2017-08-08T04:03:35.906Z,18.81
2017-08-08T04:06:02.280Z,18.87
2017-08-08T04:08:28.631Z,18.73
2017-08-08T04:10:54.968Z,18.68
2017-08-08T04:13:21.335Z,18.63
2017-08-08T04:15:47.720Z,18.65
2017-08-08T04:18:14.062Z,18.53
2017-08-08T04:20:40.424Z,18.62
2017-08-08T04:23:06.787Z,18.60
2017-08-08T04:25:33.155Z,18.43
2017-08-08T04:27:59.530Z,18.41
2017-08-08T04:30:25.943Z,18.24
2017-08-08T04:32:52.314Z,18.27
2017-08-08T04:35:18.683Z,18.33
2017-08-08T04:37:45.050Z,18.24
2017-08-08T04:40:11.390Z,18.19
2017-08-08T04:42:37.879Z,18.17
2017-08-08T04:45:04.256Z,18.24
2017-08-08T04:47:30.607Z,18.30
2017-08-08T04:49:56.987Z,18.26
2017-08-08T04:52:23.317Z,18.32
2017-08-08T04:54:49.643Z,18.43
2017-08-08T04:57:16.001Z,18.55
2017-08-08T04:59:42.346Z,18.72
2017-08-08T05:02:08.694Z,18.87
2017-08-08T05:04:35.071Z,18.82
2017-08-08T05:07:01.429Z,18.88
2017-08-08T05:09:27.796Z,18.85
2017-08-08T05:11:54.168Z,18.83
2017-08-08T05:14:20.518Z,18.87
2017-08-08T05:16:46.896Z,18.99
2017-08-08T05:19:14.034Z,19.05
2017-08-08T05:21:40.401Z,18.95
2017-08-08T05:24:06.740Z,18.96
2017-08-08T05:26:33.125Z,18.85
2017-08-08T05:29:00.383Z,18.89
2017-08-08T05:31:26.828Z,18.81
2017-08-08T05:33:53.205Z,18.79
2017-08-08T05:36:19.561Z,18.88
2017-08-08T05:38:45.956Z,18.87
2017-08-08T05:41:12.328Z,18.90
2017-08-08T05:43:38.671Z,18.99
2017-08-08T05:46:05.025Z,19.07
2017-08-08T05:48:31.425Z,18.94
2017-08-08T05:50:57.769Z,18.92
2017-08-08T05:53:25.005Z,18.91
2017-08-08T05:55:51.374Z,18.89
2017-08-08T05:58:17.701Z,18.86
2017-08-08T06:00:44.099Z,18.87
2017-08-08T06:03:10.463Z,18.90
2017-08-08T06:05:36.849Z,18.89
2017-08-08T06:08:03.214Z,18.92
2017-08-08T06:10:29.575Z,19.02
2017-08-08T06:12:55.933Z,18.91
2017-08-08T06:15:22.277Z,18.88
2017-08-08T06:17:48.644Z,18.96
2017-08-08T06:20:15.059Z,18.83
2017-08-08T06:22:41.406Z,18.81
2017-08-08T06:25:07.775Z,19.08
2017-08-08T06:27:34.139Z,18.99
2017-08-08T06:30:00.515Z,19.12
2017-08-08T06:32:26.864Z,19.01
2017-08-08T06:34:53.245Z,19.11
2017-08-08T06:37:19.610Z,19.11
2017-08-08T06:39:45.961Z,19.26
2017-08-08T06:42:12.328Z,19.23
2017-08-08T06:44:38.695Z,19.17
2017-08-08T06:47:05.041Z,19.23
2017-08-08T06:49:31.394Z,19.39
2017-08-08T06:51:57.809Z,19.44
2017-08-08T06:54:24.182Z,19.48
2017-08-08T06:56:50.549Z,19.51
2017-08-08T06:59:16.913Z,19.57
2017-08-08T07:01:43.281Z,19.63
2017-08-08T07:04:09.649Z,19.78
2017-08-08T07:06:36.027Z,19.80
2017-08-08T07:09:02.440Z,19.83
2017-08-08T07:11:28.790Z,19.94
2017-08-08T07:13:55.124Z,20.02
2017-08-08T07:16:21.489Z,20.05
2017-08-08T07:18:47.823Z,20.13
2017-08-08T07:21:14.200Z,20.24
2017-08-08T07:23:40.540Z,20.23
2017-08-08T07:26:06.883Z,20.44
2017-08-08T07:28:33.223Z,20.49
2017-08-08T07:30:59.599Z,20.59
2017-08-08T07:33:25.980Z,20.53
2017-08-08T07:35:52.361Z,20.56
2017-08-08T07:38:18.735Z,20.60
2017-08-08T07:40:45.066Z,20.69
2017-08-08T07:43:11.416Z,20.67
2017-08-08T07:45:37.779Z,20.68
2017-08-08T07:48:04.182Z,20.70
2017-08-08T07:50:30.566Z,20.74
2017-08-08T07:52:56.932Z,20.81
2017-08-08T07:55:23.337Z,20.77
2017-08-08T07:57:49.722Z,20.80
2017-08-08T08:00:16.074Z,20.87
2017-08-08T08:02:42.483Z,20.89
2017-08-08T08:05:08.876Z,20.88
2017-08-08T08:07:35.270Z,20.94
2017-08-08T08:10:01.653Z,21.02
2017-08-08T08:12:28.014Z,21.06
2017-08-08T08:14:54.365Z,21.06
2017-08-08T08:17:20.739Z,21.14
2017-08-08T08:19:47.086Z,21.16
2017-08-08T08:22:13.430Z,21.20
2017-08-08T08:24:39.798Z,21.18
2017-08-08T08:27:06.176Z,21.23
2017-08-08T08:29:32.525Z,21.23
2017-08-08T08:31:58.898Z,21.25
2017-08-08T08:34:25.270Z,21.26
2017-08-08T08:36:51.640Z,21.32
2017-08-08T08:39:18.005Z,21.36
2017-08-08T08:41:44.363Z,21.42
2017-08-08T08:44:10.727Z,21.42
2017-08-08T08:46:37.072Z,21.43
2017-08-08T08:49:03.417Z,21.46
2017-08-08T08:51:29.787Z,21.50
2017-08-08T08:53:56.149Z,21.54
2017-08-08T08:56:22.465Z,21.55
2017-08-08T08:58:48.854Z,21.56
2017-08-08T09:01:15.256Z,21.55
2017-08-08T09:03:41.602Z,21.56
2017-08-08T09:06:07.978Z,21.61
2017-08-08T09:08:34.341Z,21.60
2017-08-08T09:11:00.729Z,21.66
2017-08-08T09:13:27.100Z,21.65
2017-08-08T09:15:53.460Z,21.67
2017-08-08T09:18:19.813Z,21.68
2017-08-08T09:20:46.198Z,21.66
2017-08-08T09:23:12.559Z,21.72
2017-08-08T09:25:38.903Z,21.73
2017-08-08T09:28:05.281Z,21.80
2017-08-08T09:30:31.676Z,21.77
2017-08-08T09:32:58.030Z,21.75
2017-08-08T09:35:24.422Z,21.75
2017-08-08T09:37:50.769Z,21.72
2017-08-08T09:40:17.118Z,21.73
2017-08-08T09:42:43.483Z,21.71
2017-08-08T09:45:09.864Z,21.73
2017-08-08T09:47:36.253Z,21.75
2017-08-08T09:50:02.645Z,21.63
2017-08-08T09:52:29.031Z,21.61
2017-08-08T09:54:55.385Z,21.63
2017-08-08T09:57:21.858Z,21.60
2017-08-08T09:59:48.228Z,21.58
2017-08-08T10:02:14.570Z,21.65
2017-08-08T10:04:40.950Z,21.71
2017-08-08T10:07:07.332Z,21.68
2017-08-08T10:09:33.671Z,21.66
2017-08-08T10:12:00.045Z,21.71
2017-08-08T10:14:26.407Z,21.70
2017-08-08T10:16:52.785Z,21.69
2017-08-08T10:19:19.145Z,21.65
2017-08-08T10:21:45.497Z,21.59
2017-08-08T10:24:11.862Z,21.57
2017-08-08T10:26:38.198Z,21.64
2017-08-08T10:29:04.551Z,21.63
2017-08-08T10:31:30.919Z,21.63
2017-08-08T10:33:57.278Z,21.63
2017-08-08T10:36:23.651Z,21.62
2017-08-08T10:38:50.019Z,21.62
2017-08-08T10:41:16.407Z,21.59
2017-08-08T10:43:42.766Z,21.54
2017-08-08T10:46:09.195Z,21.50
2017-08-08T10:48:35.612Z,21.49
2017-08-08T10:51:01.995Z,21.50
2017-08-08T10:53:28.361Z,21.48
2017-08-08T10:55:54.695Z,21.40
2017-08-08T10:58:21.080Z,21.42
2017-08-08T11:00:47.418Z,21.49
2017-08-08T11:03:13.782Z,21.53
2017-08-08T11:05:40.153Z,21.47
2017-08-08T11:08:06.517Z,21.49
2017-08-08T11:10:32.869Z,21.47
2017-08-08T11:12:59.233Z,21.44
2017-08-08T11:15:25.582Z,21.38
2017-08-08T11:17:51.956Z,21.36
2017-08-08T11:20:18.313Z,21.32
2017-08-08T11:22:44.693Z,21.25
2017-08-08T11:25:11.049Z,21.25
2017-08-08T11:27:37.410Z,21.17
2017-08-08T11:30:03.810Z,21.17
2017-08-08T11:32:30.258Z,21.11
2017-08-08T11:34:56.710Z,21.07
2017-08-08T11:37:23.093Z,21.00
2017-08-08T11:39:49.456Z,20.87
2017-08-08T11:42:15.794Z,20.89
2017-08-08T11:44:42.167Z,20.85
2017-08-08T11:47:10.961Z,20.85
2017-08-08T11:49:37.496Z,20.81
2017-08-08T11:52:03.868Z,20.85
2017-08-08T11:54:30.205Z,20.86
2017-08-08T11:56:56.556Z,20.81
2017-08-08T11:59:22.933Z,20.83
2017-08-08T12:01:49.293Z,20.76
2017-08-08T12:04:15.677Z,20.71
2017-08-08T12:06:42.065Z,20.78
2017-08-08T12:09:08.402Z,20.70
2017-08-08T12:11:34.824Z,20.76
2017-08-08T12:14:01.185Z,20.73
2017-08-08T12:16:27.617Z,20.71
2017-08-08T12:18:53.965Z,20.70
2017-08-08T12:21:20.346Z,20.72
2017-08-08T12:23:46.718Z,20.77
2017-08-08T12:26:13.136Z,20.77
2017-08-08T12:28:39.462Z,20.82
2017-08-08T12:31:05.848Z,20.83
2017-08-08T12:33:32.208Z,20.79
2017-08-08T12:35:58.620Z,20.72
2017-08-08T12:38:25.013Z,20.66
2017-08-08T12:40:51.410Z,20.67
2017-08-08T12:43:18.606Z,20.65
2017-08-08T12:45:45.045Z,20.65
2017-08-08T12:48:11.397Z,20.62
2017-08-08T12:50:37.768Z,20.56
2017-08-08T12:53:04.162Z,20.59
2017-08-08T12:55:30.522Z,20.62
2017-08-08T12:57:56.897Z,20.61
2017-08-08T13:00:23.369Z,20.60
2017-08-08T13:02:49.738Z,20.56
2017-08-08T13:05:16.071Z,20.58
2017-08-08T13:10:08.597Z,20.59
2017-08-08T13:12:34.948Z,20.60
2017-08-08T13:15:01.896Z,20.61
2017-08-08T13:17:28.298Z,20.54
2017-08-08T13:19:54.954Z,20.53
2017-08-08T13:22:21.502Z,20.57
2017-08-08T13:24:47.916Z,20.58
2017-08-08T13:27:14.490Z,20.57
2017-08-08T13:29:40.892Z,20.54
2017-08-08T13:32:07.253Z,20.56
2017-08-08T13:34:33.598Z,20.56
2017-08-08T13:36:59.954Z,20.55
2017-08-08T13:39:26.363Z,20.53
2017-08-08T13:41:52.719Z,20.50
2017-08-08T13:44:19.087Z,20.52
2017-08-08T13:46:45.449Z,20.53
2017-08-08T13:49:11.857Z,20.48
2017-08-08T13:51:38.212Z,20.48
2017-08-08T13:54:04.576Z,20.39
2017-08-08T13:56:30.959Z,20.35
2017-08-08T13:58:57.793Z,20.40
2017-08-08T14:01:24.196Z,20.33
2017-08-08T14:03:50.543Z,20.30
2017-08-08T14:06:16.907Z,20.34
2017-08-08T14:08:43.280Z,20.27
2017-08-08T14:11:09.671Z,20.26
2017-08-08T14:13:36.051Z,20.30
2017-08-08T14:16:02.411Z,20.23
2017-08-08T14:18:28.781Z,20.31
2017-08-08T14:20:55.143Z,20.34
2017-08-08T14:23:21.534Z,20.32
2017-08-08T14:25:47.944Z,20.27
2017-08-08T14:28:14.337Z,20.28
2017-08-08T14:30:40.683Z,20.38
2017-08-08T14:33:07.049Z,20.55
2017-08-08T14:35:33.408Z,20.68
2017-08-08T14:37:59.759Z,20.77
2017-08-08T14:40:26.132Z,20.65
2017-08-08T14:42:52.494Z,20.84
2017-08-08T14:45:18.922Z,21.30
2017-08-08T14:47:45.300Z,21.57
2017-08-08T14:50:11.696Z,21.59
2017-08-08T14:52:38.084Z,21.64
2017-08-08T14:55:04.459Z,21.79
2017-08-08T14:57:30.807Z,21.81
2017-08-08T14:59:57.163Z,21.93
2017-08-08T15:02:23.595Z,22.06
2017-08-08T15:04:49.976Z,22.11
2017-08-08T15:07:16.373Z,22.15
2017-08-08T15:09:42.715Z,22.16
2017-08-08T15:12:09.126Z,22.23
2017-08-08T15:14:35.498Z,22.19
2017-08-08T15:17:01.903Z,22.31
2017-08-08T15:19:28.271Z,22.38
2017-08-08T15:21:54.688Z,22.45
2017-08-08T15:24:21.043Z,22.45
2017-08-08T15:26:47.399Z,22.52
2017-08-08T15:29:13.823Z,22.61
2017-08-08T15:31:40.210Z,22.54
2017-08-08T15:34:06.589Z,22.60
2017-08-08T15:36:32.924Z,22.68
2017-08-08T15:38:59.296Z,22.81
2017-08-08T15:41:25.691Z,22.86
2017-08-08T15:43:52.061Z,22.96
2017-08-08T15:46:18.411Z,22.84
2017-08-08T15:48:44.808Z,22.88
2017-08-08T15:51:11.194Z,23.16
2017-08-08T15:53:37.561Z,23.23
2017-08-08T15:56:03.946Z,23.15
2017-08-08T15:58:30.311Z,23.26
2017-08-08T16:00:56.675Z,23.15
2017-08-08T16:03:23.052Z,23.17
2017-08-08T16:05:49.412Z,23.19
2017-08-08T16:08:15.830Z,23.19
2017-08-08T16:10:42.229Z,22.97
2017-08-08T16:13:08.594Z,22.82
2017-08-08T16:15:35.314Z,22.83
2017-08-08T16:18:01.700Z,22.68
2017-08-08T16:20:28.121Z,22.69
2017-08-08T16:22:54.754Z,22.75
2017-08-08T16:25:21.112Z,22.62
2017-08-08T16:27:47.791Z,22.53
2017-08-08T16:30:14.221Z,22.58
2017-08-08T16:32:40.625Z,22.52
2017-08-08T16:35:07.039Z,22.46
2017-08-08T16:37:33.548Z,22.44
2017-08-08T16:39:59.960Z,22.46
2017-08-08T16:42:26.318Z,22.38
2017-08-08T16:44:53.026Z,22.15
2017-08-08T16:47:19.411Z,21.71
2017-08-08T16:49:46.286Z,21.34
2017-08-08T16:52:12.814Z,20.49
2017-08-08T16:54:39.195Z,20.24
2017-08-08T16:57:06.907Z,20.70
2017-08-08T16:59:33.340Z,20.83
2017-08-08T17:02:00.267Z,20.97
2017-08-08T17:04:26.758Z,21.00
2017-08-08T17:06:53.687Z,21.02
2017-08-08T17:09:20.062Z,20.95
2017-08-08T17:11:46.592Z,20.75
2017-08-08T17:14:12.979Z,20.80
2017-08-08T17:16:39.368Z,20.88
2017-08-08T17:19:05.784Z,20.83
2017-08-08T17:21:32.489Z,20.84
2017-08-08T17:23:58.869Z,20.73
2017-08-08T17:26:25.258Z,20.78
2017-08-08T17:28:51.644Z,20.66
2017-08-08T17:31:18.013Z,20.68
2017-08-08T17:33:44.454Z,20.73
2017-08-08T17:36:10.893Z,20.60
2017-08-08T17:38:37.251Z,20.53
2017-08-08T17:41:03.656Z,20.57
2017-08-08T17:43:30.062Z,20.51
2017-08-08T17:45:56.434Z,20.48
2017-08-08T17:48:22.824Z,20.40
2017-08-08T17:50:49.278Z,20.49
2017-08-08T17:53:15.671Z,20.45
2017-08-08T17:55:42.028Z,20.38
2017-08-08T17:58:08.409Z,20.38
2017-08-08T18:00:34.871Z,20.38
2017-08-08T18:03:01.250Z,20.38
2017-08-08T18:05:27.639Z,20.22
2017-08-08T18:07:54.351Z,20.21
2017-08-08T18:10:20.725Z,20.17
2017-08-08T18:12:47.152Z,20.22
2017-08-08T18:15:13.537Z,20.08
2017-08-08T18:17:39.926Z,20.03
2017-08-08T18:20:06.318Z,19.97
2017-08-08T18:22:32.713Z,19.92
2017-08-08T18:24:59.106Z,19.93
2017-08-08T18:27:25.478Z,19.75
2017-08-08T18:29:51.881Z,19.85
2017-08-08T18:32:18.270Z,19.64
2017-08-08T18:34:44.638Z,19.74
2017-08-08T18:37:11.027Z,19.75
2017-08-08T18:39:37.420Z,19.78
2017-08-08T18:42:03.839Z,19.61
2017-08-08T18:44:30.578Z,19.45
2017-08-08T18:46:56.957Z,19.36
2017-08-08T18:49:23.310Z,19.31
2017-08-08T18:51:49.718Z,19.13
2017-08-08T18:54:16.102Z,19.17
2017-08-08T18:56:42.467Z,19.01
2017-08-08T18:59:08.849Z,18.91
2017-08-08T19:01:35.223Z,18.84
2017-08-08T19:04:01.978Z,18.86
2017-08-08T19:06:28.372Z,18.76
2017-08-08T19:08:54.757Z,18.72
2017-08-08T19:11:21.179Z,18.72
2017-08-08T19:13:47.549Z,18.75
2017-08-08T19:16:13.968Z,18.68
2017-08-08T19:18:40.335Z,18.64
2017-08-08T19:21:06.681Z,18.55
2017-08-08T19:23:33.038Z,18.51
2017-08-08T19:25:59.410Z,18.56
2017-08-08T19:28:25.854Z,18.56
2017-08-08T19:30:52.541Z,18.67
2017-08-08T19:33:18.919Z,18.71
2017-08-08T19:35:45.897Z,18.59
2017-08-08T19:38:12.702Z,18.74
2017-08-08T19:40:39.357Z,18.56
2017-08-08T19:43:05.809Z,18.63
2017-08-08T19:45:32.218Z,18.55
2017-08-08T19:47:58.705Z,18.42
2017-08-08T19:50:25.103Z,18.37
2017-08-08T19:52:51.571Z,18.56
2017-08-08T19:55:17.953Z,18.43
2017-08-08T19:57:44.299Z,18.41
2017-08-08T20:00:10.627Z,18.38
2017-08-08T20:02:37.026Z,18.42
2017-08-08T20:05:03.438Z,18.40
2017-08-08T20:07:29.819Z,18.40
2017-08-08T20:09:56.174Z,18.35
2017-08-08T20:12:22.545Z,18.42
2017-08-08T20:14:48.898Z,18.36
2017-08-08T20:17:15.249Z,18.32
2017-08-08T20:19:41.638Z,18.37
2017-08-08T20:22:07.997Z,18.39
2017-08-08T20:24:34.391Z,18.33
2017-08-08T20:27:01.637Z,18.46
2017-08-08T20:29:37.986Z,18.33
2017-08-08T20:32:11.917Z,18.26
2017-08-08T20:34:38.776Z,18.28
2017-08-08T20:37:07.764Z,18.23
2017-08-08T20:39:34.852Z,18.15
2017-08-08T20:42:01.210Z,18.21
2017-08-08T20:44:27.634Z,18.35
2017-08-08T20:46:54.011Z,18.42
2017-08-08T20:49:20.366Z,18.59
2017-08-08T20:51:46.738Z,18.35
2017-08-08T20:54:13.148Z,18.18
2017-08-08T20:56:39.516Z,18.24
2017-08-08T20:59:06.641Z,18.43
2017-08-08T21:01:33.016Z,18.40
2017-08-08T21:03:59.400Z,18.37
2017-08-08T21:06:25.742Z,18.27
2017-08-08T21:08:52.115Z,18.52
2017-08-08T21:11:18.502Z,18.52
2017-08-08T21:13:44.865Z,18.30
2017-08-08T21:16:11.234Z,18.22
2017-08-08T21:18:37.612Z,18.37
2017-08-08T21:21:03.956Z,18.45
2017-08-08T21:23:30.295Z,18.38
2017-08-08T21:25:57.845Z,18.34
2017-08-08T21:28:24.743Z,18.39
2017-08-08T21:30:51.184Z,18.26
2017-08-08T21:33:17.610Z,18.30
2017-08-08T21:35:43.962Z,18.25
2017-08-08T21:38:10.415Z,18.29
2017-08-08T21:40:36.819Z,18.36
2017-08-08T21:43:03.537Z,18.31
2017-08-08T21:45:29.935Z,18.31
2017-08-08T21:47:56.307Z,18.36
2017-08-08T21:50:23.223Z,18.24
2017-08-08T21:52:49.886Z,18.26
2017-08-08T21:55:16.267Z,18.17
2017-08-08T21:57:42.897Z,18.11
2017-08-08T22:00:09.345Z,18.09
2017-08-08T22:02:36.950Z,18.14
2017-08-08T22:05:03.569Z,18.13
2017-08-08T22:07:29.978Z,18.25
2017-08-08T22:09:56.831Z,18.16
2017-08-08T22:12:23.282Z,17.51
2017-08-08T22:14:50.289Z,17.56
2017-08-08T22:17:16.697Z,17.75
2017-08-08T22:19:43.110Z,17.53
2017-08-08T22:22:09.449Z,17.26
2017-08-08T22:24:35.804Z,17.65
2017-08-08T22:27:02.189Z,17.78
2017-08-08T22:29:28.907Z,17.94
2017-08-08T22:31:55.507Z,18.02
2017-08-08T22:34:21.914Z,17.77
2017-08-08T22:36:48.300Z,17.76
2017-08-08T22:39:14.674Z,17.82
2017-08-08T22:41:41.024Z,17.84
2017-08-08T22:44:07.566Z,17.83
2017-08-08T22:46:33.898Z,17.87
2017-08-08T22:49:00.290Z,17.72
2017-08-08T22:51:27.034Z,17.86
2017-08-08T22:53:53.686Z,17.88
2017-08-08T22:56:20.049Z,17.83
2017-08-08T22:58:46.488Z,17.82
2017-08-08T23:01:12.862Z,17.83
2017-08-08T23:03:40.684Z,17.79
2017-08-08T23:06:07.797Z,17.78
2017-08-08T23:08:34.167Z,17.56
2017-08-08T23:11:00.524Z,17.46
2017-08-08T23:13:27.492Z,17.69
2017-08-08T23:15:54.019Z,17.45
2017-08-08T23:18:21.828Z,17.62
2017-08-08T23:20:48.225Z,17.62
2017-08-08T23:23:14.953Z,17.53
2017-08-08T23:25:41.361Z,17.49
2017-08-08T23:28:07.715Z,17.62
2017-08-08T23:30:34.122Z,17.65
2017-08-08T23:33:01.974Z,17.40
2017-08-08T23:35:28.392Z,17.24
2017-08-08T23:37:55.572Z,17.13
2017-08-08T23:40:22.122Z,17.03
2017-08-08T23:42:48.531Z,16.95
2017-08-08T23:45:14.927Z,17.01
2017-08-08T23:47:41.351Z,16.87
2017-08-08T23:50:07.721Z,17.06
2017-08-08T23:52:34.152Z,17.25
2017-08-08T23:55:01.134Z,17.03
2017-08-08T23:57:27.718Z,16.87
2017-08-08T23:59:54.609Z,17.08
